createdAt,value
2018-12-22T00:01:25.789Z,96950.73
2018-12-22T00:06:22.997Z,96948.64
2018-12-22T00:11:18.444Z,96932.59
2018-12-22T00:16:16.523Z,96951.42
2018-12-22T00:21:17.715Z,96955.03
2018-12-22T00:26:19.495Z,96928.84
2018-12-22T00:31:23.904Z,96968.37
2018-12-22T00:36:22.264Z,96948.81
2018-12-22T00:41:19.498Z,96955.44
2018-12-22T00:46:19.857Z,96974.94
2018-12-22T00:51:18.155Z,96962.07
2018-12-22T00:56:13.403Z,96977.20
2018-12-22T01:01:08.226Z,96954.92
2018-12-22T01:06:04.098Z,96972.06
2018-12-22T01:10:59.431Z,96973.08
2018-12-22T01:15:54.268Z,96977.97
2018-12-22T01:20:48.982Z,96985.25
2018-12-22T01:25:43.788Z,96987.28
2018-12-22T01:30:38.663Z,96972.58
2018-12-22T01:35:33.432Z,96968.02
2018-12-22T01:40:29.429Z,97003.23
2018-12-22T01:45:25.350Z,97002.12
2018-12-22T01:50:23.969Z,97031.84
2018-12-22T01:55:18.823Z,96998.98
2018-12-22T02:00:13.800Z,97007.27
2018-12-22T02:05:10.417Z,97021.70
2018-12-22T02:10:06.521Z,96989.35
2018-12-22T02:15:02.302Z,96990.62
2018-12-22T02:19:56.990Z,96991.97
2018-12-22T02:24:53.373Z,96988.05
2018-12-22T02:29:48.108Z,96998.55
2018-12-22T02:34:43.623Z,97026.77
2018-12-22T02:39:38.468Z,97008.22
2018-12-22T02:44:33.301Z,97017.33
2018-12-22T02:49:27.975Z,97010.08
2018-12-22T02:54:22.769Z,97021.64
2018-12-22T02:59:18.710Z,97023.59
2018-12-22T03:04:13.399Z,97028.34
2018-12-22T03:09:08.544Z,97024.32
2018-12-22T03:14:03.456Z,97023.91
2018-12-22T03:18:58.068Z,97020.12
2018-12-22T03:23:52.785Z,97019.98
2018-12-22T03:28:47.666Z,97028.67
2018-12-22T03:33:42.729Z,97028.87
2018-12-22T03:38:37.390Z,97036.25
2018-12-22T03:43:32.173Z,97017.19
2018-12-22T03:48:27.104Z,97024.84
2018-12-22T03:53:23.020Z,97021.44
2018-12-22T03:58:17.697Z,97039.39
2018-12-22T04:03:12.736Z,97033.92
2018-12-22T04:08:07.361Z,97047.60
2018-12-22T04:13:02.276Z,97046.33
2018-12-22T04:17:56.919Z,97052.94
2018-12-22T04:22:51.564Z,97061.25
2018-12-22T04:27:46.318Z,97054.19
2018-12-22T04:32:41.952Z,97057.98
2018-12-22T04:37:37.074Z,97043.36
2018-12-22T04:42:31.924Z,97030.75
2018-12-22T04:47:26.716Z,97024.68
2018-12-22T04:52:21.755Z,97046.33
2018-12-22T04:57:16.857Z,97059.02
2018-12-22T05:02:11.682Z,97056.73
2018-12-22T05:07:06.719Z,97075.11
2018-12-22T05:12:01.674Z,97077.80
2018-12-22T05:16:56.413Z,97079.48
2018-12-22T05:21:51.457Z,97075.08
2018-12-22T05:26:47.161Z,97072.19
2018-12-22T05:31:42.085Z,97089.56
2018-12-22T05:36:37.507Z,97097.58
2018-12-22T05:41:32.522Z,97099.31
2018-12-22T05:46:27.552Z,97104.43
2018-12-22T05:51:22.589Z,97099.31
2018-12-22T05:56:17.734Z,97108.88
2018-12-22T06:01:12.770Z,97114.06
2018-12-22T06:06:07.527Z,97089.09
2018-12-22T06:11:02.321Z,97088.67
2018-12-22T06:15:57.117Z,97081.13
2018-12-22T06:20:51.881Z,97103.34
2018-12-22T06:25:48.501Z,97112.77
2018-12-22T06:30:43.228Z,97107.38
2018-12-22T06:35:38.065Z,97103.55
2018-12-22T06:40:39.530Z,97114.48
2018-12-22T06:45:34.960Z,97129.63
2018-12-22T06:50:30.947Z,97105.23
2018-12-22T06:55:26.329Z,97119.67
2018-12-22T07:00:21.512Z,97114.70
2018-12-22T07:05:16.477Z,97120.91
2018-12-22T07:10:11.463Z,97118.56
2018-12-22T07:15:31.204Z,97120.09
2018-12-22T07:36:37.722Z,97184.64
2018-12-22T07:41:34.439Z,97201.55
2018-12-22T07:46:31.234Z,97203.69
2018-12-22T07:51:26.289Z,97214.27
2018-12-22T07:56:21.928Z,97220.21
2018-12-22T08:01:16.886Z,97219.91
2018-12-22T08:06:16.680Z,97251.08
2018-12-22T08:11:13.300Z,97272.28
2018-12-22T08:16:08.436Z,97268.20
2018-12-22T08:30:33.909Z,97314.81
2018-12-22T08:41:25.778Z,97323.94
2018-12-22T08:46:20.544Z,97335.20
2018-12-22T08:51:15.602Z,97345.12
2018-12-22T08:56:16.678Z,97339.59
2018-12-22T09:01:11.420Z,97346.11
2018-12-22T09:06:06.733Z,97365.86
2018-12-22T09:11:02.541Z,97356.79
2018-12-22T09:15:58.565Z,97360.42
2018-12-22T09:20:53.346Z,97365.00
2018-12-22T09:25:48.988Z,97374.62
2018-12-22T09:30:44.006Z,97384.05
2018-12-22T09:35:41.935Z,97396.27
2018-12-22T09:40:37.922Z,97386.17
2018-12-22T09:51:35.872Z,97376.58
2018-12-22T09:56:44.354Z,97380.40
2018-12-22T10:23:50.633Z,97404.98
2018-12-22T10:30:13.105Z,97399.63
2018-12-22T10:35:26.819Z,97379.41
2018-12-22T10:40:36.925Z,97379.05
2018-12-22T10:56:58.930Z,97412.42
2018-12-22T11:08:43.674Z,97383.75
2018-12-22T11:20:29.919Z,97387.32
2018-12-22T11:25:42.753Z,97393.34
2018-12-22T11:38:38.513Z,97392.51
2018-12-22T12:19:32.159Z,97406.03
2018-12-22T12:25:03.357Z,97413.11
2018-12-22T12:30:29.353Z,97418.72
2018-12-22T12:41:56.051Z,97434.20
2018-12-22T13:11:56.000Z,97433.54
2018-12-22T13:22:41.631Z,97427.03
2018-12-22T13:27:54.632Z,97440.34
2018-12-22T13:32:57.180Z,97448.37
2018-12-22T13:44:30.461Z,97428.83
2018-12-22T14:28:15.310Z,97490.50
2018-12-22T14:38:40.298Z,97487.95
2018-12-22T15:12:33.731Z,97541.95
2018-12-22T15:17:28.450Z,97536.25
2018-12-22T15:22:23.175Z,97538.31
2018-12-22T15:27:17.842Z,97545.52
2018-12-22T15:32:12.517Z,97543.01
2018-12-22T15:37:07.214Z,97548.42
2018-12-22T15:42:04.246Z,97543.02
2018-12-22T15:46:58.929Z,97540.02
2018-12-22T15:51:53.956Z,97556.84
2018-12-22T15:56:48.836Z,97559.45
2018-12-22T16:01:43.496Z,97569.05
2018-12-22T16:06:38.761Z,97569.61
2018-12-22T16:11:54.176Z,97579.34
2018-12-22T16:16:49.729Z,97595.14
2018-12-22T16:21:44.549Z,97599.30
2018-12-22T16:26:39.398Z,97598.55
2018-12-22T16:31:34.479Z,97592.17
2018-12-22T16:36:29.304Z,97609.27
2018-12-22T16:41:24.054Z,97607.01
2018-12-22T16:46:19.970Z,97613.08
2018-12-22T16:51:14.826Z,97622.83
2018-12-22T16:56:10.073Z,97627.22
2018-12-22T17:02:34.802Z,97636.91
2018-12-22T17:07:29.631Z,97632.55
2018-12-22T17:12:24.883Z,97648.41
2018-12-22T17:17:19.569Z,97656.99
2018-12-22T17:22:22.023Z,97662.23
2018-12-22T17:27:18.203Z,97669.65
2018-12-22T17:32:12.975Z,97675.31
2018-12-22T17:37:07.939Z,97674.98
2018-12-22T17:42:07.573Z,97691.88
2018-12-22T17:47:02.307Z,97690.72
2018-12-22T17:51:57.014Z,97695.71
2018-12-22T17:56:51.732Z,97697.48
2018-12-22T18:01:46.699Z,97700.57
2018-12-22T18:06:42.385Z,97704.49
2018-12-22T18:11:46.901Z,97710.05
2018-12-22T18:16:49.930Z,97713.94
2018-12-22T18:21:51.029Z,97721.67
2018-12-22T18:26:45.673Z,97720.97
2018-12-22T18:31:44.261Z,97730.23
2018-12-22T18:37:17.529Z,97720.74
2018-12-22T18:42:13.017Z,97713.38
2018-12-22T18:47:07.869Z,97721.02
2018-12-22T18:52:02.679Z,97728.58
2018-12-22T18:57:07.540Z,97723.97
2018-12-22T19:02:02.187Z,97724.66
2018-12-22T19:14:12.488Z,97732.63
2018-12-22T19:19:07.457Z,97720.39
2018-12-22T19:24:05.318Z,97719.05
2018-12-22T19:29:00.307Z,97724.30
2018-12-22T19:33:57.158Z,97734.63
2018-12-22T19:38:52.352Z,97740.70
2018-12-22T19:43:53.156Z,97745.16
2018-12-22T19:48:48.061Z,97747.22
2018-12-22T19:53:43.105Z,97761.39
2018-12-22T19:58:37.909Z,97763.66
2018-12-22T20:03:32.971Z,97766.83
2018-12-22T20:08:28.000Z,97771.59
2018-12-22T20:13:22.939Z,97774.20
2018-12-22T20:18:17.806Z,97763.48
2018-12-22T20:23:13.509Z,97769.15
2018-12-22T20:28:08.862Z,97795.70
2018-12-22T20:33:03.795Z,97786.59
2018-12-22T20:38:08.964Z,97767.98
2018-12-22T20:43:21.909Z,97761.34
2018-12-22T21:16:26.681Z,97797.34
2018-12-22T21:21:21.589Z,97789.37
2018-12-22T21:26:16.483Z,97788.06
2018-12-22T21:31:11.637Z,97779.47
2018-12-22T21:36:06.520Z,97784.00
2018-12-22T21:41:01.630Z,97799.75
2018-12-22T21:45:56.537Z,97803.58
2018-12-22T21:50:51.424Z,97804.88
2018-12-22T21:55:46.472Z,97809.88
2018-12-22T22:00:43.300Z,97818.50
2018-12-22T22:05:38.282Z,97807.58
2018-12-22T22:10:33.217Z,97807.66
2018-12-22T22:15:28.487Z,97795.92
2018-12-22T22:20:23.482Z,97792.93
2018-12-22T22:25:18.759Z,97789.06
2018-12-22T22:30:13.857Z,97781.88
2018-12-22T22:35:08.767Z,97793.08
2018-12-22T22:40:03.824Z,97776.66
2018-12-22T22:45:01.473Z,97778.02
2018-12-22T22:50:09.654Z,97778.77
2018-12-22T22:55:04.868Z,97785.85
2018-12-22T22:59:59.771Z,97797.45
2018-12-22T23:04:54.918Z,97811.18
2018-12-22T23:09:59.135Z,97807.41
2018-12-22T23:14:54.176Z,97818.88
2018-12-22T23:19:58.349Z,97828.31
2018-12-22T23:24:53.170Z,97830.16
2018-12-22T23:29:49.266Z,97824.02
2018-12-22T23:34:44.562Z,97828.24
2018-12-22T23:39:39.681Z,97829.55
2018-12-22T23:44:35.924Z,97827.14
2018-12-22T23:49:31.460Z,97832.74
2018-12-22T23:54:27.924Z,97842.05
2018-12-22T23:59:26.265Z,97830.14
